Terminal Aerodrome Forecast
Issued by NWS Sioux Falls, SD

Home | Current Version | Previous Version | Graphics & Text | Print | Product List | Glossary On
Versions: 1 2 3 4 5 6 7 8 9 10 11 12 13 14 15 16 17
792
FTUS43 KFSD 192342
TAFFSD
TAF
KFSD 192342Z 2000/2024 03012G21KT 3SM -SN OVC012
     FM200600 02012KT 1SM -SN OVC014
     FM200800 36011KT 1/2SM SN OVC012
     FM201100 35012KT 6SM -SN OVC030
     FM201500 33013KT P6SM BKN035=

USA.gov is the U.S. government's official web portal to all federal, state and local government web resources and services.